createdAt,value
2023-01-18T00:00:37.136Z,98999.44
2023-01-18T00:03:20.338Z,98996.33
2023-01-18T00:05:47.273Z,99003.52
2023-01-18T00:08:19.032Z,99005.42
2023-01-18T00:10:46.094Z,99005.25
2023-01-18T00:13:12.934Z,99003.73
2023-01-18T00:15:39.775Z,99001.22
2023-01-18T00:18:06.712Z,99006.73
2023-01-18T00:20:33.469Z,99015.77
2023-01-18T00:23:01.221Z,99024.02
2023-01-18T00:25:29.708Z,99022.42
2023-01-18T00:27:56.881Z,99028.63
2023-01-18T00:30:26.365Z,99029.84
2023-01-18T00:32:56.760Z,99033.40
2023-01-18T00:35:25.373Z,99037.60
2023-01-18T00:37:53.349Z,99046.64
2023-01-18T00:40:21.612Z,99043.65
2023-01-18T00:43:07.951Z,99039.33
2023-01-18T00:45:34.956Z,99036.61
2023-01-18T00:48:02.109Z,99036.18
2023-01-18T00:50:29.470Z,99035.25
2023-01-18T00:52:58.364Z,99028.82
2023-01-18T00:55:25.913Z,99022.14
2023-01-18T00:57:53.278Z,99022.94
2023-01-18T01:00:26.105Z,99023.55
2023-01-18T01:02:53.818Z,99019.60
2023-01-18T01:05:42.066Z,99022.52
2023-01-18T01:08:16.595Z,99019.34
2023-01-18T01:10:48.773Z,99016.29
2023-01-18T01:13:39.560Z,99023.79
2023-01-18T01:16:27.854Z,99018.55
2023-01-18T01:19:14.525Z,99014.96
2023-01-18T01:22:00.407Z,99007.19
2023-01-18T01:24:46.194Z,99004.52
2023-01-18T01:27:13.442Z,99008.17
2023-01-18T01:29:40.193Z,99004.83
2023-01-18T01:32:07.743Z,98997.05
2023-01-18T01:34:35.404Z,99001.86
2023-01-18T01:37:03.588Z,99006.84
2023-01-18T01:39:30.536Z,98997.34
2023-01-18T01:41:57.881Z,98997.76
2023-01-18T01:44:27.591Z,98995.71
2023-01-18T01:47:21.368Z,98997.02
2023-01-18T01:49:56.897Z,98997.42
2023-01-18T01:52:33.080Z,98998.98
2023-01-18T01:55:04.115Z,99005.54
2023-01-18T01:57:54.222Z,99000.95
2023-01-18T02:00:23.871Z,99000.64
2023-01-18T02:02:59.392Z,99006.79
2023-01-18T02:05:29.384Z,99010.04
2023-01-18T02:08:00.866Z,99005.05
2023-01-18T02:10:29.206Z,99001.59
2023-01-18T02:12:57.804Z,98995.98
2023-01-18T02:15:49.619Z,98994.34
2023-01-18T02:18:29.263Z,98995.10
2023-01-18T02:21:02.248Z,98987.54
2023-01-18T02:23:34.823Z,98989.99
2023-01-18T02:26:24.715Z,98990.45
2023-01-18T02:29:13.097Z,98994.73
2023-01-18T02:32:03.555Z,98994.88
2023-01-18T02:34:47.293Z,98993.23
2023-01-18T02:37:17.107Z,98989.63
2023-01-18T02:39:57.367Z,98990.29
2023-01-18T02:42:46.784Z,98994.14
2023-01-18T02:45:59.483Z,98996.27
2023-01-18T02:48:36.434Z,98991.53
2023-01-18T02:51:03.791Z,98996.34
2023-01-18T02:53:32.983Z,98997.23
2023-01-18T02:56:09.771Z,99000.00
2023-01-18T02:58:48.136Z,98996.04
2023-01-18T03:01:36.634Z,99000.24
2023-01-18T03:04:41.666Z,98995.04
2023-01-18T03:07:21.208Z,98992.35
2023-01-18T03:09:48.675Z,98992.60
2023-01-18T03:12:48.081Z,98991.38
2023-01-18T03:15:39.495Z,98993.45
2023-01-18T03:18:27.121Z,98990.30
2023-01-18T03:20:56.631Z,98990.38
2023-01-18T03:23:39.506Z,98995.48
2023-01-18T03:26:16.461Z,98993.23
2023-01-18T03:29:16.754Z,98985.01
2023-01-18T03:32:09.915Z,98989.61
2023-01-18T03:34:55.291Z,98997.16
2023-01-18T03:37:38.006Z,98995.67
2023-01-18T03:40:18.275Z,98984.31
2023-01-18T03:43:01.288Z,98988.48
2023-01-18T03:45:33.322Z,98992.43
2023-01-18T03:48:01.932Z,98993.41
2023-01-18T03:50:41.785Z,98988.68
2023-01-18T03:53:14.266Z,98990.13
2023-01-18T03:55:48.627Z,98987.61
2023-01-18T03:58:21.334Z,98990.15
2023-01-18T04:00:48.293Z,98993.90
2023-01-18T04:03:15.012Z,99000.88
2023-01-18T04:05:41.993Z,99004.21
2023-01-18T04:08:08.948Z,99004.89
2023-01-18T04:10:35.883Z,98997.66
2023-01-18T04:13:02.827Z,99002.15
2023-01-18T04:15:29.774Z,99002.52
2023-01-18T04:17:56.515Z,99001.70
2023-01-18T04:20:23.569Z,99003.05
2023-01-18T04:22:54.414Z,98999.14
2023-01-18T04:25:22.094Z,99006.05
2023-01-18T04:27:48.908Z,99014.73
2023-01-18T04:30:16.467Z,99013.41
2023-01-18T04:32:45.768Z,99021.14
2023-01-18T04:35:13.326Z,99016.96
2023-01-18T04:37:40.169Z,99020.86
2023-01-18T04:40:07.957Z,99024.65
2023-01-18T04:42:34.882Z,99024.42
2023-01-18T04:45:01.622Z,99020.62
2023-01-18T04:47:28.667Z,99018.87
2023-01-18T04:49:58.761Z,99021.83
2023-01-18T04:52:26.253Z,99027.39
2023-01-18T04:54:53.090Z,99029.92
2023-01-18T04:57:20.657Z,99031.11
2023-01-18T04:59:47.493Z,99029.98
2023-01-18T05:02:15.612Z,99032.13
2023-01-18T05:04:43.182Z,99035.77
2023-01-18T05:07:10.903Z,99037.59
2023-01-18T05:09:37.730Z,99038.93
2023-01-18T05:12:04.777Z,99042.60
2023-01-18T05:14:31.623Z,99045.30
2023-01-18T05:16:58.545Z,99055.64
2023-01-18T05:19:29.813Z,99060.77
2023-01-18T05:21:56.866Z,99065.80
2023-01-18T05:24:23.704Z,99062.98
2023-01-18T05:26:50.445Z,99064.83
2023-01-18T05:29:19.747Z,99061.13
2023-01-18T05:31:46.608Z,99060.09
2023-01-18T05:34:13.645Z,99063.46
2023-01-18T05:36:40.687Z,99067.52
2023-01-18T05:39:08.847Z,99058.83
2023-01-18T05:41:35.707Z,99063.07
2023-01-18T05:44:02.865Z,99065.65
2023-01-18T05:46:29.804Z,99065.10
2023-01-18T05:48:57.972Z,99067.50
2023-01-18T05:51:25.844Z,99071.27
2023-01-18T05:53:53.504Z,99070.70
2023-01-18T05:56:20.459Z,99069.13
2023-01-18T05:58:47.289Z,99071.79
2023-01-18T06:01:14.255Z,99070.23
2023-01-18T06:03:41.400Z,99072.89
2023-01-18T06:06:08.433Z,99069.85
2023-01-18T06:08:35.485Z,99069.09
2023-01-18T06:11:02.340Z,99065.70
2023-01-18T06:13:30.499Z,99067.16
2023-01-18T06:15:58.777Z,99074.08
2023-01-18T06:18:29.298Z,99071.02
2023-01-18T06:20:59.700Z,99067.90
2023-01-18T06:23:30.370Z,99074.98
2023-01-18T06:25:58.048Z,99082.67
2023-01-18T06:28:27.140Z,99082.36
2023-01-18T06:30:56.013Z,99082.71
2023-01-18T06:33:23.881Z,99084.03
2023-01-18T06:35:51.750Z,99087.23
2023-01-18T06:38:18.834Z,99081.68
2023-01-18T06:40:46.072Z,99080.66
2023-01-18T06:43:13.711Z,99074.65
2023-01-18T06:45:41.136Z,99071.94
2023-01-18T06:48:08.339Z,99075.11
2023-01-18T06:50:35.581Z,99079.33
2023-01-18T06:53:02.931Z,99084.73
2023-01-18T06:55:29.571Z,99088.11
2023-01-18T06:57:57.329Z,99083.16
2023-01-18T07:00:24.582Z,99091.98
2023-01-18T07:02:52.346Z,99092.84
2023-01-18T07:05:19.395Z,99097.96
2023-01-18T07:07:46.135Z,99099.75
2023-01-18T07:10:15.443Z,99095.14
2023-01-18T07:12:47.925Z,99097.29
2023-01-18T07:15:21.494Z,99106.78
2023-01-18T07:17:49.892Z,99103.91
2023-01-18T07:20:17.144Z,99103.10
2023-01-18T07:22:43.989Z,99104.19
2023-01-18T07:25:18.202Z,99096.77
2023-01-18T07:27:45.874Z,99099.99
2023-01-18T07:30:13.349Z,99097.53
2023-01-18T07:32:48.050Z,99095.35
2023-01-18T07:35:17.763Z,99094.52
2023-01-18T07:37:52.525Z,99092.59
2023-01-18T07:40:21.600Z,99090.80
2023-01-18T07:42:55.650Z,99089.61
2023-01-18T07:45:22.644Z,99093.52
2023-01-18T07:47:52.457Z,99100.08
2023-01-18T07:50:21.348Z,99095.79
2023-01-18T07:52:48.600Z,99091.19
2023-01-18T07:55:15.942Z,99098.62
2023-01-18T07:57:43.004Z,99097.12
2023-01-18T08:00:10.666Z,99095.37
2023-01-18T08:02:40.822Z,99104.77
2023-01-18T08:05:10.192Z,99102.37
2023-01-18T08:07:37.450Z,99107.88
2023-01-18T08:10:05.312Z,99105.17
2023-01-18T08:12:32.573Z,99104.17
2023-01-18T08:15:00.224Z,99109.45
2023-01-18T08:17:29.169Z,99104.09
2023-01-18T08:19:56.368Z,99110.67
2023-01-18T08:22:23.523Z,99112.24
2023-01-18T08:24:50.668Z,99112.56
2023-01-18T08:27:17.821Z,99114.09
2023-01-18T08:29:46.258Z,99108.85
2023-01-18T08:32:13.764Z,99105.72
2023-01-18T08:34:41.117Z,99118.69
2023-01-18T08:37:07.946Z,99114.16
2023-01-18T08:39:35.111Z,99108.72
2023-01-18T08:42:03.278Z,99103.81
2023-01-18T08:44:30.025Z,99098.91
2023-01-18T08:46:58.717Z,99093.84
2023-01-18T08:49:26.985Z,99091.27
2023-01-18T08:51:53.826Z,99100.29
2023-01-18T08:54:20.672Z,99101.05
2023-01-18T08:56:47.718Z,99101.27
2023-01-18T08:59:14.696Z,99096.98
2023-01-18T09:01:41.860Z,99095.85
2023-01-18T09:04:08.778Z,99102.11
2023-01-18T09:06:36.525Z,99106.35
2023-01-18T09:09:04.910Z,99094.27
2023-01-18T09:11:32.267Z,99097.15
2023-01-18T09:14:01.923Z,99093.27
2023-01-18T09:16:31.207Z,99098.42
2023-01-18T09:18:59.551Z,99105.23
2023-01-18T09:21:29.669Z,99105.50
2023-01-18T09:23:58.968Z,99108.65
2023-01-18T09:26:27.941Z,99112.48
2023-01-18T09:28:55.113Z,99122.23
2023-01-18T09:31:25.150Z,99121.77
2023-01-18T09:33:53.904Z,99115.16
2023-01-18T09:36:25.882Z,99110.41
2023-01-18T09:38:53.029Z,99107.15
2023-01-18T09:41:38.920Z,99112.42
2023-01-18T09:44:16.315Z,99106.55
2023-01-18T09:46:45.146Z,99106.94
2023-01-18T09:49:21.058Z,99112.84
2023-01-18T09:52:05.162Z,99116.85
2023-01-18T09:54:42.464Z,99122.08
2023-01-18T09:57:18.454Z,99128.64
2023-01-18T09:59:58.093Z,99118.77
2023-01-18T10:02:35.446Z,99124.64
2023-01-18T10:05:13.182Z,99121.26
2023-01-18T10:08:11.055Z,99125.33
2023-01-18T10:10:40.866Z,99118.52
2023-01-18T10:13:24.398Z,99123.67
2023-01-18T10:15:51.861Z,99127.70
2023-01-18T10:18:19.724Z,99127.29
2023-01-18T10:20:52.619Z,99136.86
2023-01-18T10:23:34.201Z,99136.16
2023-01-18T10:26:30.325Z,99141.58
2023-01-18T10:29:05.973Z,99129.84
2023-01-18T10:32:04.549Z,99129.79
2023-01-18T10:34:35.098Z,99124.55
2023-01-18T10:37:11.983Z,99121.50
2023-01-18T10:39:41.247Z,99120.84
2023-01-18T10:42:22.363Z,99117.06
2023-01-18T10:44:49.194Z,99122.58
2023-01-18T10:47:18.038Z,99125.65
2023-01-18T10:49:47.970Z,99127.70
2023-01-18T10:52:31.141Z,99130.94
2023-01-18T10:55:06.781Z,99137.84
2023-01-18T10:57:37.202Z,99142.64
2023-01-18T11:00:11.825Z,99151.19
2023-01-18T11:02:40.138Z,99152.41
2023-01-18T11:05:42.399Z,99150.13
2023-01-18T11:08:25.048Z,99152.25
2023-01-18T11:11:16.615Z,99151.64
2023-01-18T11:13:49.429Z,99149.27
2023-01-18T11:16:20.118Z,99150.81
2023-01-18T11:19:05.707Z,99152.52
2023-01-18T11:21:44.998Z,99150.45
2023-01-18T11:24:28.648Z,99150.69
2023-01-18T11:27:23.799Z,99149.14
2023-01-18T11:29:50.841Z,99147.04
2023-01-18T11:32:25.359Z,99145.86
2023-01-18T11:34:59.193Z,99147.61
2023-01-18T11:37:37.911Z,99156.21
2023-01-18T11:40:27.568Z,99162.16
2023-01-18T11:43:03.085Z,99162.82
2023-01-18T11:45:39.804Z,99164.41
2023-01-18T11:48:20.976Z,99160.86
2023-01-18T11:50:53.758Z,99160.65
2023-01-18T11:53:41.092Z,99166.80
2023-01-18T11:56:07.927Z,99168.55
2023-01-18T11:58:35.918Z,99167.93
2023-01-18T12:01:33.758Z,99174.81
2023-01-18T12:04:36.953Z,99183.48
2023-01-18T12:07:16.187Z,99181.38
2023-01-18T12:09:53.473Z,99187.32
2023-01-18T12:12:32.809Z,99182.05
2023-01-18T12:15:27.279Z,99187.64
2023-01-18T12:18:13.098Z,99195.39
2023-01-18T12:21:03.708Z,99193.44
2023-01-18T12:23:49.269Z,99201.60
2023-01-18T12:26:54.955Z,99198.58
2023-01-18T12:29:25.045Z,99189.88
2023-01-18T12:31:57.519Z,99201.05
2023-01-18T12:34:59.905Z,99206.61
2023-01-18T12:37:35.954Z,99208.98
2023-01-18T12:40:21.952Z,99212.91
2023-01-18T12:43:11.936Z,99224.24
2023-01-18T12:45:40.554Z,99229.67
2023-01-18T12:48:26.203Z,99233.64
2023-01-18T12:50:55.817Z,99236.27
2023-01-18T12:53:37.300Z,99233.52
2023-01-18T12:56:13.043Z,99236.30
2023-01-18T12:58:41.107Z,99234.65
2023-01-18T13:01:14.478Z,99237.86
2023-01-18T13:03:45.359Z,99243.21
2023-01-18T13:06:14.012Z,99239.48
2023-01-18T13:08:46.924Z,99234.30
2023-01-18T13:11:25.344Z,99239.15
2023-01-18T13:14:13.074Z,99240.64
2023-01-18T13:16:50.975Z,99242.95
2023-01-18T13:19:24.824Z,99243.98
2023-01-18T13:21:55.435Z,99246.88
2023-01-18T13:24:22.043Z,99243.00
2023-01-18T13:26:48.944Z,99246.49
2023-01-18T13:29:29.224Z,99247.46
2023-01-18T13:31:57.344Z,99249.52
2023-01-18T13:34:48.331Z,99251.14
2023-01-18T13:37:41.302Z,99252.33
2023-01-18T13:40:25.341Z,99254.62
2023-01-18T13:42:52.796Z,99257.69
2023-01-18T13:45:22.914Z,99258.04
2023-01-18T13:47:54.133Z,99258.63
2023-01-18T13:50:39.234Z,99260.53
2023-01-18T13:53:15.208Z,99257.65
2023-01-18T13:55:54.461Z,99263.02
2023-01-18T13:58:25.975Z,99265.45
2023-01-18T14:00:55.383Z,99261.36
2023-01-18T14:03:27.602Z,99258.11
2023-01-18T14:05:59.105Z,99261.88
2023-01-18T14:08:30.789Z,99265.48
2023-01-18T14:11:05.894Z,99268.55
2023-01-18T14:13:45.187Z,99269.33
2023-01-18T14:16:27.960Z,99280.19
2023-01-18T14:19:00.833Z,99287.01
2023-01-18T14:21:52.453Z,99288.94
2023-01-18T14:24:23.218Z,99294.31
2023-01-18T14:26:53.104Z,99300.59
2023-01-18T14:29:28.652Z,99306.56
2023-01-18T14:31:57.439Z,99313.14
2023-01-18T14:34:30.252Z,99313.98
2023-01-18T14:36:58.600Z,99321.41
2023-01-18T14:39:27.799Z,99328.11
2023-01-18T14:41:58.262Z,99325.57
2023-01-18T14:44:57.828Z,99331.08
2023-01-18T14:47:32.432Z,99345.08
2023-01-18T14:50:03.863Z,99353.05
2023-01-18T14:52:34.351Z,99352.70
2023-01-18T14:55:01.504Z,99354.88
2023-01-18T14:57:28.236Z,99359.98
2023-01-18T15:00:03.548Z,99364.05
2023-01-18T15:02:37.651Z,99369.84
2023-01-18T15:05:19.332Z,99371.20
2023-01-18T15:07:55.321Z,99370.15
2023-01-18T15:10:23.827Z,99371.48
2023-01-18T15:12:57.110Z,99374.27
2023-01-18T15:15:40.095Z,99373.22
2023-01-18T15:18:10.748Z,99374.50
2023-01-18T15:20:47.952Z,99375.15
2023-01-18T15:23:15.205Z,99372.34
2023-01-18T15:25:43.389Z,99366.52
2023-01-18T15:28:23.008Z,99368.11
2023-01-18T15:30:55.603Z,99365.61
2023-01-18T15:33:24.594Z,99365.83
2023-01-18T15:36:00.508Z,99367.15
2023-01-18T15:38:28.011Z,99368.02
2023-01-18T15:40:58.030Z,99372.27
2023-01-18T15:43:35.677Z,99370.52
2023-01-18T15:46:09.145Z,99372.50
2023-01-18T15:48:49.027Z,99377.04
2023-01-18T15:51:16.321Z,99377.85
2023-01-18T15:53:51.871Z,99385.30
2023-01-18T15:56:29.988Z,99391.34
2023-01-18T15:59:00.504Z,99388.56
2023-01-18T16:01:33.366Z,99392.80
2023-01-18T16:04:09.247Z,99394.60
2023-01-18T16:06:38.477Z,99405.26
2023-01-18T16:09:13.420Z,99408.17
2023-01-18T16:11:40.539Z,99418.17
2023-01-18T16:14:33.206Z,99422.43
2023-01-18T16:17:19.542Z,99428.79
2023-01-18T16:19:50.510Z,99436.48
2023-01-18T16:22:21.665Z,99440.55
2023-01-18T16:25:03.908Z,99445.91
2023-01-18T16:27:33.271Z,99441.39
2023-01-18T16:30:16.909Z,99458.16
2023-01-18T16:32:44.156Z,99461.96
2023-01-18T16:35:17.913Z,99466.41
2023-01-18T16:37:45.228Z,99473.00
2023-01-18T16:40:17.183Z,99478.40
2023-01-18T16:43:04.401Z,99479.86
2023-01-18T16:45:35.678Z,99483.37
2023-01-18T16:48:03.906Z,99486.02
2023-01-18T16:50:32.527Z,99486.77
2023-01-18T16:52:59.452Z,99492.85
2023-01-18T16:55:26.602Z,99492.49
2023-01-18T16:57:53.754Z,99495.44
2023-01-18T17:00:23.901Z,99493.70
2023-01-18T17:02:51.299Z,99497.98
2023-01-18T17:05:18.587Z,99498.88
2023-01-18T17:07:46.346Z,99501.38
2023-01-18T17:10:21.184Z,99495.83
2023-01-18T17:12:48.289Z,99492.52
2023-01-18T17:15:15.340Z,99493.23
2023-01-18T17:17:43.141Z,99495.75
2023-01-18T17:20:20.325Z,99506.86
2023-01-18T17:22:47.278Z,99515.73
2023-01-18T17:25:14.734Z,99526.52
2023-01-18T17:27:43.225Z,99524.84
2023-01-18T17:30:13.265Z,99528.89
2023-01-18T17:32:40.072Z,99545.05
2023-01-18T17:35:07.632Z,99571.95
2023-01-18T17:37:35.593Z,99575.48
2023-01-18T17:40:16.466Z,99580.34
2023-01-18T17:42:48.230Z,99571.39
2023-01-18T17:45:15.177Z,99567.96
2023-01-18T17:47:43.120Z,99583.03
2023-01-18T17:50:17.013Z,99587.59
2023-01-18T17:52:44.000Z,99578.70
2023-01-18T17:55:12.079Z,99585.56
2023-01-18T17:57:39.127Z,99596.05
2023-01-18T18:00:07.612Z,99600.42
2023-01-18T18:02:35.120Z,99603.15
2023-01-18T18:05:02.565Z,99605.23
2023-01-18T18:07:30.179Z,99611.83
2023-01-18T18:10:00.701Z,99615.80
2023-01-18T18:12:32.175Z,99626.34
2023-01-18T18:14:59.309Z,99630.40
2023-01-18T18:17:29.470Z,99643.15
2023-01-18T18:19:56.688Z,99649.61
2023-01-18T18:22:24.600Z,99654.54
2023-01-18T18:24:52.519Z,99654.86
2023-01-18T18:27:20.373Z,99658.67
2023-01-18T18:29:47.846Z,99654.52
2023-01-18T18:32:16.735Z,99654.73
2023-01-18T18:34:45.210Z,99656.59
2023-01-18T18:37:14.517Z,99665.67
2023-01-18T18:39:41.871Z,99665.60
2023-01-18T18:42:08.715Z,99670.08
2023-01-18T18:44:36.582Z,99675.92
2023-01-18T18:47:05.243Z,99680.81
2023-01-18T18:49:32.932Z,99682.55
2023-01-18T18:51:59.982Z,99678.70
2023-01-18T18:54:26.829Z,99679.95
2023-01-18T18:56:53.663Z,99682.13
2023-01-18T18:59:21.428Z,99681.54
2023-01-18T19:01:51.187Z,99685.95
2023-01-18T19:04:18.197Z,99686.95
2023-01-18T19:06:44.933Z,99689.70
2023-01-18T19:09:11.976Z,99693.90
2023-01-18T19:11:47.152Z,99694.03
2023-01-18T19:14:17.446Z,99696.52
2023-01-18T19:16:44.379Z,99700.64
2023-01-18T19:19:11.226Z,99703.21
2023-01-18T19:21:39.511Z,99699.36
2023-01-18T19:24:06.551Z,99697.61
2023-01-18T19:26:33.294Z,99703.25
2023-01-18T19:29:01.214Z,99709.21
2023-01-18T19:31:28.010Z,99708.50
2023-01-18T19:33:56.552Z,99706.58
2023-01-18T19:36:24.457Z,99711.88
2023-01-18T19:38:57.821Z,99710.89
2023-01-18T19:41:30.636Z,99704.59
2023-01-18T19:43:57.579Z,99701.96
2023-01-18T19:46:26.903Z,99694.28
2023-01-18T19:48:57.922Z,99693.23
2023-01-18T19:51:25.528Z,99688.98
2023-01-18T19:53:53.860Z,99685.74
2023-01-18T19:56:21.781Z,99683.61
2023-01-18T19:58:51.339Z,99684.54
2023-01-18T20:01:34.425Z,99691.80
2023-01-18T20:04:05.506Z,99687.05
2023-01-18T20:06:34.394Z,99685.35
2023-01-18T20:09:01.818Z,99684.91
2023-01-18T20:11:29.624Z,99679.61
2023-01-18T20:13:56.511Z,99675.98
2023-01-18T20:16:23.944Z,99671.86
2023-01-18T20:18:52.397Z,99672.89
2023-01-18T20:21:19.652Z,99667.64
2023-01-18T20:23:46.694Z,99666.98
2023-01-18T20:26:21.984Z,99668.88
2023-01-18T20:28:53.194Z,99667.56
2023-01-18T20:31:20.495Z,99661.70
2023-01-18T20:33:47.894Z,99661.26
2023-01-18T20:36:14.847Z,99666.47
2023-01-18T20:38:41.990Z,99664.71
2023-01-18T20:41:09.239Z,99666.02
2023-01-18T20:43:36.393Z,99672.75
2023-01-18T20:46:05.715Z,99669.84
2023-01-18T20:48:34.283Z,99668.17
2023-01-18T20:51:03.372Z,99674.70
2023-01-18T20:53:32.654Z,99681.83
2023-01-18T20:56:03.523Z,99676.25
2023-01-18T20:58:30.755Z,99678.80
2023-01-18T21:01:05.217Z,99677.21
2023-01-18T21:03:32.137Z,99671.49
2023-01-18T21:05:58.995Z,99673.30
2023-01-18T21:08:25.714Z,99675.55
2023-01-18T21:10:55.013Z,99674.25
2023-01-18T21:13:24.109Z,99674.44
2023-01-18T21:15:57.920Z,99672.10
2023-01-18T21:18:26.500Z,99674.13
2023-01-18T21:20:55.247Z,99675.77
2023-01-18T21:23:26.541Z,99672.16
2023-01-18T21:25:57.276Z,99667.51
2023-01-18T21:28:25.551Z,99669.17
2023-01-18T21:30:55.571Z,99667.18
2023-01-18T21:33:24.045Z,99670.64
2023-01-18T21:35:53.532Z,99669.71
2023-01-18T21:38:26.541Z,99664.98
2023-01-18T21:40:53.381Z,99665.57
2023-01-18T21:43:40.298Z,99666.33
2023-01-18T21:46:11.524Z,99668.81
2023-01-18T21:48:38.450Z,99657.94
2023-01-18T21:51:24.691Z,99651.16
2023-01-18T21:54:10.267Z,99652.49
2023-01-18T21:56:37.518Z,99654.64
2023-01-18T21:59:04.406Z,99658.27
2023-01-18T22:01:34.272Z,99656.98
2023-01-18T22:04:21.913Z,99653.95
2023-01-18T22:06:49.571Z,99644.92
2023-01-18T22:09:17.438Z,99645.75
2023-01-18T22:11:44.592Z,99642.27
2023-01-18T22:14:11.556Z,99639.61
2023-01-18T22:16:38.639Z,99643.20
2023-01-18T22:19:05.729Z,99644.58
2023-01-18T22:21:32.981Z,99645.79
2023-01-18T22:24:00.041Z,99647.63
2023-01-18T22:26:28.920Z,99645.34
2023-01-18T22:28:56.584Z,99644.73
2023-01-18T22:31:24.762Z,99647.23
2023-01-18T22:33:51.521Z,99645.39
2023-01-18T22:36:18.650Z,99642.09
2023-01-18T22:38:45.627Z,99639.31
2023-01-18T22:41:15.349Z,99635.16
2023-01-18T22:43:43.072Z,99631.63
2023-01-18T22:46:13.587Z,99624.88
2023-01-18T22:48:41.700Z,99624.58
2023-01-18T22:51:11.999Z,99620.95
2023-01-18T22:53:38.944Z,99617.20
2023-01-18T22:56:08.348Z,99618.92
2023-01-18T22:58:35.802Z,99624.68
2023-01-18T23:01:12.605Z,99622.95
2023-01-18T23:03:39.720Z,99618.34
2023-01-18T23:06:06.575Z,99622.56
2023-01-18T23:08:44.019Z,99620.05
2023-01-18T23:11:25.248Z,99621.40
2023-01-18T23:14:13.295Z,99624.84
2023-01-18T23:17:00.402Z,99624.42
2023-01-18T23:19:30.485Z,99625.98
2023-01-18T23:21:57.674Z,99624.56
2023-01-18T23:24:25.132Z,99621.23
2023-01-18T23:26:52.156Z,99625.05
2023-01-18T23:29:19.635Z,99623.73
2023-01-18T23:31:46.720Z,99620.46
2023-01-18T23:34:13.652Z,99620.59
2023-01-18T23:36:40.779Z,99627.58
2023-01-18T23:39:26.569Z,99621.61
2023-01-18T23:42:12.175Z,99619.38
2023-01-18T23:44:57.834Z,99615.04
2023-01-18T23:47:44.042Z,99617.98
2023-01-18T23:50:30.132Z,99623.39
2023-01-18T23:53:18.466Z,99623.99
2023-01-18T23:55:45.768Z,99628.64
2023-01-18T23:58:12.670Z,99623.13
